createdAt,value
2019-04-07T00:01:55.062Z,100382.01
2019-04-07T00:04:23.734Z,100381.77
2019-04-07T00:06:52.119Z,100379.94
2019-04-07T00:09:20.559Z,100383.00
2019-04-07T00:11:48.831Z,100379.06
2019-04-07T00:14:17.188Z,100371.97
2019-04-07T00:16:45.558Z,100374.92
2019-04-07T00:19:13.829Z,100375.20
2019-04-07T00:21:42.328Z,100371.02
2019-04-07T00:24:10.638Z,100369.72
2019-04-07T00:26:39.420Z,100370.39
2019-04-07T00:29:07.670Z,100369.16
2019-04-07T00:31:35.930Z,100366.13
2019-04-07T00:34:04.209Z,100365.22
2019-04-07T00:36:32.921Z,100366.83
2019-04-07T00:39:01.566Z,100363.92
2019-04-07T00:41:29.978Z,100361.77
2019-04-07T00:43:58.234Z,100364.16
2019-04-07T00:46:26.840Z,100358.78
2019-04-07T00:48:55.147Z,100359.45
2019-04-07T00:51:23.414Z,100362.87
2019-04-07T00:53:51.960Z,100364.85
2019-04-07T00:56:20.529Z,100356.73
2019-04-07T00:58:48.811Z,100360.16
2019-04-07T01:01:18.550Z,100360.63
2019-04-07T01:03:46.861Z,100366.06
2019-04-07T01:06:15.139Z,100366.27
2019-04-07T01:08:43.746Z,100370.20
2019-04-07T01:11:12.284Z,100372.87
2019-04-07T01:13:40.506Z,100376.05
2019-04-07T01:16:08.789Z,100377.55
2019-04-07T01:18:37.164Z,100372.28
2019-04-07T01:21:05.411Z,100371.38
2019-04-07T01:23:33.734Z,100373.06
2019-04-07T01:26:01.997Z,100377.73
2019-04-07T01:28:30.256Z,100364.75
2019-04-07T01:30:59.061Z,100370.80
2019-04-07T01:33:27.762Z,100374.23
2019-04-07T01:35:56.403Z,100374.95
2019-04-07T01:38:24.679Z,100375.92
2019-04-07T01:40:57.265Z,100369.81
2019-04-07T01:43:27.190Z,100366.83
2019-04-07T01:46:09.878Z,100367.28
2019-04-07T01:48:48.490Z,100370.41
2019-04-07T01:51:24.633Z,100370.08
2019-04-07T01:54:10.130Z,100371.05
2019-04-07T01:56:46.430Z,100365.50
2019-04-07T01:59:32.524Z,100369.30
2019-04-07T02:02:17.479Z,100369.59
2019-04-07T02:04:47.919Z,100367.89
2019-04-07T02:07:18.309Z,100372.24
2019-04-07T02:10:04.408Z,100369.25
2019-04-07T02:12:50.686Z,100370.42
2019-04-07T02:15:39.373Z,100361.47
2019-04-07T02:18:25.070Z,100370.81
2019-04-07T02:20:58.842Z,100368.16
2019-04-07T02:23:45.093Z,100369.97
2019-04-07T02:26:21.468Z,100370.75
2019-04-07T02:29:00.407Z,100370.42
2019-04-07T02:31:30.319Z,100368.24
2019-04-07T02:34:00.244Z,100372.30
2019-04-07T02:36:36.107Z,100375.30
2019-04-07T02:39:23.845Z,100366.42
2019-04-07T02:42:10.993Z,100369.02
2019-04-07T02:44:47.002Z,100370.71
2019-04-07T02:47:28.495Z,100367.59
2019-04-07T02:50:10.299Z,100375.05
2019-04-07T02:52:40.192Z,100371.23
2019-04-07T02:55:19.670Z,100370.51
2019-04-07T02:57:49.529Z,100369.91
2019-04-07T03:00:22.292Z,100374.58
2019-04-07T03:02:52.290Z,100376.21
2019-04-07T03:05:28.168Z,100371.14
2019-04-07T03:07:58.121Z,100368.87
2019-04-07T03:10:37.080Z,100371.92
2019-04-07T03:13:09.672Z,100377.39
2019-04-07T03:15:42.916Z,100373.83
2019-04-07T03:18:29.295Z,100377.91
2019-04-07T03:21:04.764Z,100378.36
2019-04-07T03:23:41.571Z,100372.56
2019-04-07T03:26:11.543Z,100377.13
2019-04-07T03:28:53.237Z,100370.58
2019-04-07T03:31:32.508Z,100370.94
2019-04-07T03:34:04.708Z,100372.11
2019-04-07T03:37:09.640Z,100372.44
2019-04-07T03:39:17.339Z,100372.44
2019-04-07T03:41:47.315Z,100366.41
2019-04-07T03:44:17.244Z,100371.92
2019-04-07T03:46:59.918Z,100373.08
2019-04-07T03:49:29.883Z,100374.41
2019-04-07T03:52:09.938Z,100373.50
2019-04-07T03:54:52.703Z,100377.91
2019-04-07T03:57:37.438Z,100375.94
2019-04-07T04:00:08.507Z,100379.95
2019-04-07T04:02:41.410Z,100380.56
2019-04-07T04:05:14.731Z,100377.30
2019-04-07T04:07:56.777Z,100371.94
2019-04-07T04:10:30.135Z,100370.64
2019-04-07T04:13:16.559Z,100371.42
2019-04-07T04:15:46.859Z,100367.98
2019-04-07T04:18:16.165Z,100370.24
2019-04-07T04:20:44.543Z,100380.50
2019-04-07T04:23:12.825Z,100380.80
2019-04-07T04:25:41.098Z,100378.05
2019-04-07T04:28:09.395Z,100376.78
2019-04-07T04:30:37.692Z,100370.93
2019-04-07T04:33:06.306Z,100379.16
2019-04-07T04:35:34.652Z,100382.77
2019-04-07T04:38:03.791Z,100383.16
2019-04-07T04:40:32.426Z,100381.35
2019-04-07T04:43:01.474Z,100378.88
2019-04-07T04:45:29.767Z,100382.38
2019-04-07T04:47:58.205Z,100390.27
2019-04-07T04:50:27.440Z,100386.83
2019-04-07T04:52:56.423Z,100385.59
2019-04-07T04:55:25.458Z,100386.22
2019-04-07T04:57:54.508Z,100384.98
2019-04-07T05:00:22.763Z,100389.98
2019-04-07T05:02:51.378Z,100385.08
2019-04-07T05:05:20.099Z,100387.73
2019-04-07T05:07:57.692Z,100393.76
2019-04-07T05:10:19.256Z,100398.08
2019-04-07T05:12:48.155Z,100399.31
2019-04-07T05:15:16.456Z,100400.50
2019-04-07T05:17:44.808Z,100405.41
2019-04-07T05:20:13.558Z,100407.06
2019-04-07T05:22:42.183Z,100414.67
2019-04-07T05:25:10.553Z,100410.16
2019-04-07T05:27:39.191Z,100417.03
2019-04-07T05:30:07.843Z,100421.83
2019-04-07T05:32:36.830Z,100422.45
2019-04-07T05:35:07.775Z,100421.34
2019-04-07T05:37:36.188Z,100425.39
2019-04-07T05:40:05.783Z,100424.14
2019-04-07T05:42:34.345Z,100426.41
2019-04-07T05:45:02.939Z,100425.84
2019-04-07T05:47:31.499Z,100428.11
2019-04-07T05:50:02.817Z,100427.78
2019-04-07T05:52:30.532Z,100431.16
2019-04-07T05:54:58.853Z,100435.27
2019-04-07T05:57:33.372Z,100440.40
2019-04-07T05:59:59.242Z,100436.95
2019-04-07T06:02:31.270Z,100438.45
2019-04-07T06:04:59.477Z,100443.73
2019-04-07T06:07:30.679Z,100446.98
2019-04-07T06:09:57.778Z,100447.69
2019-04-07T06:12:26.212Z,100447.82
2019-04-07T06:14:55.156Z,100454.61
2019-04-07T06:17:26.322Z,100455.17
2019-04-07T06:19:53.560Z,100457.83
2019-04-07T06:22:22.677Z,100458.89
2019-04-07T06:24:56.854Z,100466.58
2019-04-07T06:27:25.137Z,100464.94
2019-04-07T06:29:57.181Z,100467.87
2019-04-07T06:32:24.426Z,100467.78
2019-04-07T06:34:54.550Z,100459.45
2019-04-07T06:37:28.828Z,100464.06
2019-04-07T06:39:53.661Z,100465.33
2019-04-07T06:42:22.066Z,100469.26
2019-04-07T06:44:52.008Z,100472.56
2019-04-07T06:47:24.982Z,100470.98
2019-04-07T06:49:57.642Z,100475.59
2019-04-07T06:52:43.385Z,100470.44
2019-04-07T06:55:22.701Z,100473.73
2019-04-07T06:58:10.027Z,100469.94
2019-04-07T07:00:57.641Z,100475.42
2019-04-07T07:03:44.138Z,100477.28
2019-04-07T07:06:16.469Z,100477.28
2019-04-07T07:08:47.479Z,100479.34
2019-04-07T07:11:30.867Z,100473.55
2019-04-07T07:14:09.504Z,100474.29
2019-04-07T07:16:46.842Z,100474.29
2019-04-07T07:19:28.552Z,100484.44
2019-04-07T07:22:07.741Z,100488.44
2019-04-07T07:24:34.885Z,100479.20
2019-04-07T07:27:07.197Z,100480.01
2019-04-07T07:29:35.286Z,100475.36
2019-04-07T07:32:06.326Z,100484.23
2019-04-07T07:34:39.857Z,100492.38
2019-04-07T07:37:08.441Z,100486.12
2019-04-07T07:39:41.952Z,100488.16
2019-04-07T07:42:09.404Z,100486.48
2019-04-07T07:44:39.783Z,100488.42
2019-04-07T07:47:08.190Z,100491.41
2019-04-07T07:49:40.318Z,100491.59
2019-04-07T07:52:08.721Z,100484.05
2019-04-07T07:54:36.966Z,100487.16
2019-04-07T07:57:06.923Z,100486.69
2019-04-07T07:59:38.958Z,100485.48
2019-04-07T08:02:05.275Z,100479.66
2019-04-07T08:04:33.516Z,100477.47
2019-04-07T08:07:05.497Z,100480.20
2019-04-07T08:09:33.821Z,100472.02
2019-04-07T08:12:03.478Z,100478.44
2019-04-07T08:14:32.494Z,100479.45
2019-04-07T08:17:03.351Z,100482.09
2019-04-07T08:19:31.805Z,100481.06
2019-04-07T08:22:00.640Z,100487.05
2019-04-07T08:24:29.322Z,100489.45
2019-04-07T08:26:59.038Z,100480.08
2019-04-07T08:29:29.186Z,100484.28
2019-04-07T08:31:58.765Z,100482.97
2019-04-07T08:34:30.550Z,100489.69
2019-04-07T08:37:00.866Z,100485.58
2019-04-07T08:39:34.097Z,100493.91
2019-04-07T08:41:59.454Z,100483.90
2019-04-07T08:44:29.690Z,100489.55
2019-04-07T08:46:58.190Z,100489.91
2019-04-07T08:49:27.638Z,100477.22
2019-04-07T08:51:56.118Z,100480.80
2019-04-07T08:54:24.389Z,100494.92
2019-04-07T08:56:56.294Z,100497.09
2019-04-07T08:59:22.746Z,100499.22
2019-04-07T09:01:53.469Z,100493.22
2019-04-07T09:04:21.099Z,100497.86
2019-04-07T09:06:50.251Z,100492.81
2019-04-07T09:09:30.893Z,100492.57
2019-04-07T09:11:53.010Z,100495.41
2019-04-07T09:14:18.695Z,100504.57
2019-04-07T09:17:03.555Z,100492.66
2019-04-07T09:19:35.799Z,100491.59
2019-04-07T09:22:23.157Z,100503.39
2019-04-07T09:25:10.910Z,100497.05
2019-04-07T09:27:48.583Z,100497.16
2019-04-07T09:30:34.645Z,100491.77
2019-04-07T09:33:20.529Z,100493.28
2019-04-07T09:35:58.762Z,100502.19
2019-04-07T09:38:31.009Z,100500.20
2019-04-07T09:41:21.584Z,100496.03
2019-04-07T09:43:50.734Z,100500.84
2019-04-07T09:46:26.485Z,100496.12
2019-04-07T09:49:10.998Z,100497.63
2019-04-07T09:51:46.729Z,100501.09
2019-04-07T09:54:20.651Z,100500.17
2019-04-07T09:56:53.390Z,100497.80
2019-04-07T09:59:29.685Z,100504.27
2019-04-07T10:02:09.229Z,100492.42
2019-04-07T10:04:55.404Z,100498.06
2019-04-07T10:07:44.002Z,100475.45
2019-04-07T10:10:14.868Z,100487.66
2019-04-07T10:12:44.816Z,100486.05
2019-04-07T10:15:31.727Z,100482.50
2019-04-07T10:18:18.001Z,100483.97
2019-04-07T10:20:47.982Z,100490.16
2019-04-07T10:23:17.938Z,100483.19
2019-04-07T10:25:50.828Z,100469.73
2019-04-07T10:28:20.735Z,100475.24
2019-04-07T10:30:54.066Z,100478.38
2019-04-07T10:33:34.324Z,100487.86
2019-04-07T10:36:07.898Z,100478.32
2019-04-07T10:38:41.437Z,100474.33
2019-04-07T10:41:15.252Z,100469.17
2019-04-07T10:43:48.707Z,100472.34
2019-04-07T10:46:34.583Z,100478.10
2019-04-07T10:49:13.204Z,100472.12
2019-04-07T10:51:45.963Z,100468.02
2019-04-07T10:54:18.680Z,100465.50
2019-04-07T10:56:55.255Z,100458.47
2019-04-07T10:59:25.613Z,100468.44
2019-04-07T11:02:01.422Z,100468.38
2019-04-07T11:04:34.110Z,100468.16
2019-04-07T11:07:10.533Z,100453.66
2019-04-07T11:09:46.192Z,100449.53
2019-04-07T11:12:16.134Z,100453.86
2019-04-07T11:14:46.599Z,100453.78
2019-04-07T11:17:29.165Z,100458.93
2019-04-07T11:19:59.167Z,100451.96
2019-04-07T11:22:45.012Z,100453.22
2019-04-07T11:25:18.343Z,100457.37
2019-04-07T11:27:51.038Z,100453.63
2019-04-07T11:30:21.362Z,100443.95
2019-04-07T11:32:57.614Z,100450.00
2019-04-07T11:35:29.901Z,100454.66
2019-04-07T11:37:59.196Z,100447.28
2019-04-07T11:40:30.381Z,100445.46
2019-04-07T11:43:04.358Z,100452.22
2019-04-07T11:45:34.455Z,100450.42
2019-04-07T11:48:19.187Z,100454.50
2019-04-07T11:50:52.207Z,100453.47
2019-04-07T11:53:39.415Z,100450.75
2019-04-07T11:56:21.732Z,100445.59
2019-04-07T11:58:51.713Z,100441.88
2019-04-07T12:01:36.550Z,100447.75
2019-04-07T12:04:16.591Z,100447.11
2019-04-07T12:06:49.880Z,100456.70
2019-04-07T12:09:29.255Z,100451.89
2019-04-07T12:11:59.338Z,100448.55
2019-04-07T12:14:35.015Z,100437.83
2019-04-07T12:17:09.336Z,100444.28
2019-04-07T12:19:58.155Z,100446.44
2019-04-07T12:22:28.241Z,100444.82
2019-04-07T12:25:03.218Z,100443.69
2019-04-07T12:27:48.416Z,100445.27
2019-04-07T12:30:28.407Z,100447.27
2019-04-07T12:32:58.600Z,100442.89
2019-04-07T12:35:32.591Z,100428.94
2019-04-07T12:38:12.291Z,100442.95
2019-04-07T12:41:09.826Z,100432.17
2019-04-07T12:43:39.202Z,100439.25
2019-04-07T12:46:21.149Z,100431.24
2019-04-07T12:49:09.382Z,100425.72
2019-04-07T12:51:54.329Z,100432.15
2019-04-07T12:54:34.338Z,100430.80
2019-04-07T12:57:20.184Z,100431.05
2019-04-07T12:59:51.399Z,100427.22
2019-04-07T13:02:25.699Z,100433.41
2019-04-07T13:05:13.611Z,100432.96
2019-04-07T13:07:48.421Z,100426.87
2019-04-07T13:10:20.734Z,100423.93
2019-04-07T13:12:55.988Z,100438.86
2019-04-07T13:15:31.469Z,100438.06
2019-04-07T13:18:13.765Z,100431.53
2019-04-07T13:20:51.825Z,100427.85
2019-04-07T13:23:23.945Z,100421.66
2019-04-07T13:25:56.711Z,100427.50
2019-04-07T13:28:35.916Z,100443.44
2019-04-07T13:31:05.814Z,100429.18
2019-04-07T13:33:41.568Z,100426.38
2019-04-07T13:36:17.603Z,100424.86
2019-04-07T13:38:47.847Z,100431.25
2019-04-07T13:41:23.772Z,100434.49
2019-04-07T13:43:56.079Z,100430.27
2019-04-07T13:46:35.415Z,100434.68
2019-04-07T13:49:16.291Z,100433.72
2019-04-07T13:52:01.028Z,100425.22
2019-04-07T13:54:47.151Z,100434.18
2019-04-07T13:57:26.156Z,100427.76
2019-04-07T14:00:13.420Z,100442.71
2019-04-07T14:02:44.316Z,100443.11
2019-04-07T14:05:26.298Z,100432.45
2019-04-07T14:08:00.111Z,100438.70
2019-04-07T14:10:46.135Z,100440.86
2019-04-07T14:13:16.083Z,100430.70
2019-04-07T14:15:46.428Z,100428.62
2019-04-07T14:18:19.175Z,100437.81
2019-04-07T14:20:52.776Z,100429.86
2019-04-07T14:23:31.600Z,100429.20
2019-04-07T14:26:10.327Z,100424.49
2019-04-07T14:28:45.964Z,100435.02
2019-04-07T14:31:32.481Z,100426.97
2019-04-07T14:34:05.513Z,100425.64
2019-04-07T14:36:47.960Z,100418.12
2019-04-07T14:39:21.632Z,100424.91
2019-04-07T14:42:06.705Z,100423.92
2019-04-07T14:44:35.840Z,100430.13
2019-04-07T14:47:08.798Z,100421.64
2019-04-07T14:49:57.373Z,100425.09
2019-04-07T14:52:41.072Z,100422.08
2019-04-07T14:55:23.716Z,100424.53
2019-04-07T14:57:54.592Z,100418.64
2019-04-07T15:00:36.392Z,100425.69
2019-04-07T15:03:05.816Z,100424.32
2019-04-07T15:05:41.871Z,100422.01
2019-04-07T15:08:24.697Z,100423.05
2019-04-07T15:10:58.236Z,100421.66
2019-04-07T15:13:29.423Z,100422.77
2019-04-07T15:15:58.309Z,100406.95
2019-04-07T15:18:28.659Z,100409.00
2019-04-07T15:20:59.405Z,100411.57
2019-04-07T15:23:33.834Z,100406.37
2019-04-07T15:26:06.741Z,100408.91
2019-04-07T15:28:35.785Z,100403.46
2019-04-07T15:31:04.344Z,100405.47
2019-04-07T15:33:34.082Z,100409.30
2019-04-07T15:36:02.689Z,100413.43
2019-04-07T15:38:31.317Z,100419.20
2019-04-07T15:41:01.096Z,100423.59
2019-04-07T15:43:33.041Z,100431.73
2019-04-07T15:46:00.116Z,100437.52
2019-04-07T15:48:28.577Z,100445.59
2019-04-07T15:51:00.927Z,100451.12
2019-04-07T15:53:27.617Z,100441.09
2019-04-07T15:56:02.027Z,100446.13
2019-04-07T15:58:27.621Z,100443.13
2019-04-07T16:00:56.061Z,100444.42
2019-04-07T16:03:24.277Z,100451.55
2019-04-07T16:05:53.403Z,100449.00
2019-04-07T16:08:21.704Z,100450.39
2019-04-07T16:10:52.055Z,100456.67
2019-04-07T16:13:20.041Z,100448.85
2019-04-07T16:15:52.826Z,100452.41
2019-04-07T16:18:18.961Z,100456.36
2019-04-07T16:20:47.251Z,100458.52
2019-04-07T16:23:18.345Z,100464.56
2019-04-07T16:25:46.363Z,100460.77
2019-04-07T16:28:16.036Z,100463.38
2019-04-07T16:30:48.526Z,100466.12
2019-04-07T16:33:15.231Z,100460.92
2019-04-07T16:35:43.967Z,100462.80
2019-04-07T16:38:14.153Z,100461.83
2019-04-07T16:40:43.448Z,100465.71
2019-04-07T16:43:15.400Z,100459.96
2019-04-07T16:45:44.104Z,100463.03
2019-04-07T16:48:11.722Z,100463.35
2019-04-07T16:50:40.028Z,100462.94
2019-04-07T16:53:09.225Z,100461.52
2019-04-07T16:55:40.287Z,100459.59
2019-04-07T16:58:09.782Z,100469.16
2019-04-07T17:00:38.402Z,100461.46
2019-04-07T17:03:08.421Z,100465.01
2019-04-07T17:05:37.526Z,100472.70
2019-04-07T17:08:05.864Z,100465.71
2019-04-07T17:10:35.387Z,100468.38
2019-04-07T17:13:15.449Z,100478.31
2019-04-07T17:15:37.452Z,100469.39
2019-04-07T17:18:08.175Z,100473.38
2019-04-07T17:20:37.733Z,100477.63
2019-04-07T17:23:07.104Z,100478.59
2019-04-07T17:25:35.908Z,100478.43
2019-04-07T17:28:05.334Z,100482.55
2019-04-07T17:30:35.928Z,100487.84
2019-04-07T17:33:05.221Z,100488.95
2019-04-07T17:35:35.568Z,100490.14
2019-04-07T17:38:06.687Z,100489.54
2019-04-07T17:40:37.656Z,100498.99
2019-04-07T17:43:25.684Z,100496.50
2019-04-07T17:45:48.074Z,100497.22
2019-04-07T17:48:21.359Z,100499.34
2019-04-07T17:50:51.392Z,100498.05
2019-04-07T17:53:38.158Z,100499.70
2019-04-07T17:56:18.056Z,100504.62
2019-04-07T17:58:45.790Z,100500.05
2019-04-07T18:01:22.295Z,100500.64
2019-04-07T18:03:59.462Z,100502.00
2019-04-07T18:06:32.102Z,100499.73
2019-04-07T18:09:19.732Z,100502.09
2019-04-07T18:12:04.395Z,100512.14
2019-04-07T18:14:31.810Z,100509.84
2019-04-07T18:17:02.425Z,100510.91
2019-04-07T18:19:38.137Z,100519.88
2019-04-07T18:22:08.205Z,100519.84
2019-04-07T18:24:38.160Z,100532.44
2019-04-07T18:27:12.417Z,100530.97
2019-04-07T18:29:39.762Z,100535.72
2019-04-07T18:32:27.524Z,100535.94
2019-04-07T18:35:14.127Z,100542.44
2019-04-07T18:37:50.121Z,100539.81
2019-04-07T18:40:27.326Z,100549.69
2019-04-07T18:43:14.568Z,100549.02
2019-04-07T18:45:59.546Z,100553.03
2019-04-07T18:48:29.468Z,100557.98
2019-04-07T18:51:07.977Z,100559.63
2019-04-07T18:53:37.361Z,100558.98
2019-04-07T18:56:10.755Z,100561.56
2019-04-07T18:58:46.991Z,100559.16
2019-04-07T19:01:16.914Z,100567.16
2019-04-07T19:04:02.458Z,100568.92
2019-04-07T19:06:50.293Z,100566.91
2019-04-07T19:09:38.029Z,100571.31
2019-04-07T19:12:24.779Z,100571.78
2019-04-07T19:15:07.900Z,100577.97
2019-04-07T19:17:54.680Z,100577.21
2019-04-07T19:20:34.131Z,100577.59
2019-04-07T19:23:04.406Z,100572.30
2019-04-07T19:25:34.335Z,100576.27
2019-04-07T19:28:20.486Z,100582.06
2019-04-07T19:30:51.644Z,100579.98
2019-04-07T19:33:38.207Z,100585.69
2019-04-07T19:36:24.338Z,100589.42
2019-04-07T19:39:12.016Z,100587.76
2019-04-07T19:41:44.735Z,100589.53
2019-04-07T19:44:18.773Z,100591.22
2019-04-07T19:47:00.027Z,100577.09
2019-04-07T19:49:38.930Z,100588.18
2019-04-07T19:52:20.944Z,100585.95
2019-04-07T19:55:05.908Z,100584.53
2019-04-07T19:57:44.925Z,100591.16
2019-04-07T20:00:31.180Z,100588.63
2019-04-07T20:03:17.933Z,100599.53
2019-04-07T20:05:50.173Z,100594.41
2019-04-07T20:08:20.696Z,100590.55
2019-04-07T20:10:52.294Z,100586.50
2019-04-07T20:13:28.235Z,100591.06
2019-04-07T20:15:59.159Z,100595.78
2019-04-07T20:18:33.030Z,100598.23
2019-04-07T20:21:17.440Z,100605.66
2019-04-07T20:24:05.009Z,100601.25
2019-04-07T20:26:40.582Z,100600.03
2019-04-07T20:29:11.101Z,100604.38
2019-04-07T20:31:54.594Z,100602.39
2019-04-07T20:34:25.290Z,100602.84
2019-04-07T20:36:57.900Z,100602.59
2019-04-07T20:39:32.602Z,100603.08
2019-04-07T20:42:01.948Z,100606.51
2019-04-07T20:44:58.394Z,100605.61
2019-04-07T20:47:19.691Z,100616.09
2019-04-07T20:49:58.856Z,100609.42
2019-04-07T20:52:29.863Z,100609.51
2019-04-07T20:55:04.783Z,100608.52
2019-04-07T20:57:53.909Z,100607.05
2019-04-07T21:00:38.223Z,100613.98
2019-04-07T21:03:26.781Z,100610.89
2019-04-07T21:06:12.647Z,100600.06
2019-04-07T21:08:48.169Z,100611.83
2019-04-07T21:11:21.577Z,100611.83
2019-04-07T21:13:52.425Z,100611.33
2019-04-07T21:16:31.220Z,100613.18
2019-04-07T21:19:09.851Z,100616.33
2019-04-07T21:21:57.653Z,100609.58
2019-04-07T21:24:30.359Z,100608.27
2019-04-07T21:27:12.301Z,100598.45
2019-04-07T21:29:51.128Z,100607.43
2019-04-07T21:32:23.628Z,100618.95
2019-04-07T21:34:53.589Z,100618.95
2019-04-07T21:37:32.650Z,100616.95
2019-04-07T21:40:17.569Z,100616.95
2019-04-07T21:43:02.653Z,100617.80
2019-04-07T21:45:53.051Z,100618.02
2019-04-07T21:48:39.122Z,100621.24
2019-04-07T21:51:13.482Z,100623.49
2019-04-07T21:53:57.452Z,100629.78
2019-04-07T21:56:39.087Z,100626.24
2019-04-07T21:59:14.940Z,100620.41
2019-04-07T22:01:47.946Z,100621.62
2019-04-07T22:04:20.668Z,100622.78
2019-04-07T22:06:50.804Z,100615.65
2019-04-07T22:09:35.855Z,100616.67
2019-04-07T22:12:04.123Z,100616.87
2019-04-07T22:14:32.398Z,100616.95
2019-04-07T22:17:02.929Z,100610.30
2019-04-07T22:19:30.650Z,100613.83
2019-04-07T22:21:58.939Z,100614.14
2019-04-07T22:24:31.277Z,100614.98
2019-04-07T22:26:57.225Z,100612.59
2019-04-07T22:29:25.462Z,100619.34
2019-04-07T22:31:55.610Z,100616.17
2019-04-07T22:34:24.768Z,100616.80
2019-04-07T22:36:53.757Z,100605.30
2019-04-07T22:39:22.599Z,100604.53
2019-04-07T22:41:50.908Z,100609.96
2019-04-07T22:44:20.377Z,100616.30
2019-04-07T22:46:51.221Z,100613.63
2019-04-07T22:49:19.810Z,100621.76
2019-04-07T22:51:50.430Z,100615.09
2019-04-07T22:54:18.903Z,100609.57
2019-04-07T22:56:47.126Z,100612.88
2019-04-07T22:59:15.483Z,100610.95
2019-04-07T23:01:43.735Z,100619.97
2019-04-07T23:04:12.050Z,100615.88
2019-04-07T23:06:40.452Z,100608.91
2019-04-07T23:09:08.728Z,100619.41
2019-04-07T23:11:37.638Z,100610.87
2019-04-07T23:14:06.102Z,100613.66
2019-04-07T23:16:34.366Z,100611.51
2019-04-07T23:19:02.768Z,100603.78
2019-04-07T23:21:31.792Z,100617.56
2019-04-07T23:24:01.061Z,100616.52
2019-04-07T23:26:29.889Z,100608.36
2019-04-07T23:28:58.474Z,100610.25
2019-04-07T23:31:27.879Z,100609.76
2019-04-07T23:33:56.519Z,100609.03
2019-04-07T23:36:24.855Z,100611.64
2019-04-07T23:38:53.830Z,100608.58
2019-04-07T23:41:22.240Z,100607.80
2019-04-07T23:43:50.597Z,100606.93
2019-04-07T23:46:24.287Z,100609.27
2019-04-07T23:48:49.550Z,100612.79
2019-04-07T23:51:18.565Z,100611.62
2019-04-07T23:54:07.247Z,100614.48
2019-04-07T23:56:35.712Z,100607.91
2019-04-07T23:59:04.020Z,100607.45
